createdAt,value
2023-03-23T00:00:37.076Z,11.69
2023-03-23T00:02:08.853Z,11.69
2023-03-23T00:03:42.197Z,11.67
2023-03-23T00:05:14.667Z,11.68
2023-03-23T00:06:46.515Z,11.69
2023-03-23T00:08:22.123Z,11.69
2023-03-23T00:09:55.181Z,11.68
2023-03-23T00:11:30.340Z,11.68
2023-03-23T00:13:05.880Z,11.70
2023-03-23T00:14:42.505Z,11.72
2023-03-23T00:16:21.198Z,11.73
2023-03-23T00:17:53.042Z,11.74
2023-03-23T00:19:26.702Z,11.78
2023-03-23T00:20:59.534Z,11.80
2023-03-23T00:22:31.719Z,11.85
2023-03-23T00:24:10.676Z,11.87
2023-03-23T00:25:42.723Z,11.91
2023-03-23T00:27:16.132Z,11.95
2023-03-23T00:28:48.234Z,11.99
2023-03-23T00:30:20.371Z,12.03
2023-03-23T00:31:53.327Z,12.07
2023-03-23T00:33:28.046Z,12.10
2023-03-23T00:35:00.070Z,12.15
2023-03-23T00:36:36.493Z,12.19
2023-03-23T00:38:09.548Z,12.23
2023-03-23T00:39:47.285Z,12.27
2023-03-23T00:41:19.262Z,12.29
2023-03-23T00:42:51.580Z,12.34
2023-03-23T00:44:24.737Z,12.38
2023-03-23T00:45:58.173Z,12.41
2023-03-23T00:47:31.429Z,12.46
2023-03-23T00:49:03.803Z,12.46
2023-03-23T00:50:38.997Z,12.51
2023-03-23T00:52:13.257Z,12.52
2023-03-23T00:53:45.783Z,12.56
2023-03-23T00:55:17.628Z,12.59
2023-03-23T00:56:49.649Z,12.62
2023-03-23T00:58:21.723Z,12.64
2023-03-23T00:59:54.013Z,12.64
2023-03-23T01:01:37.469Z,12.66
2023-03-23T01:03:13.343Z,12.67
2023-03-23T01:04:46.046Z,12.68
2023-03-23T01:06:17.918Z,12.68
2023-03-23T01:07:49.811Z,12.68
2023-03-23T01:09:24.599Z,12.65
2023-03-23T01:11:04.777Z,12.63
2023-03-23T01:12:37.854Z,12.64
2023-03-23T01:14:10.475Z,12.63
2023-03-23T01:15:43.505Z,12.62
2023-03-23T01:17:15.712Z,12.61
2023-03-23T01:18:47.914Z,12.60
2023-03-23T01:20:20.216Z,12.58
2023-03-23T01:21:52.155Z,12.57
2023-03-23T01:23:24.012Z,12.56
2023-03-23T01:24:56.019Z,12.55
2023-03-23T01:26:29.670Z,12.52
2023-03-23T01:28:02.209Z,12.51
2023-03-23T01:29:35.117Z,12.51
2023-03-23T01:31:14.661Z,12.48
2023-03-23T01:32:46.730Z,12.48
2023-03-23T01:34:18.600Z,12.45
2023-03-23T01:35:50.679Z,12.42
2023-03-23T01:37:27.316Z,12.40
2023-03-23T01:39:04.024Z,12.38
2023-03-23T01:40:36.716Z,12.37
2023-03-23T01:42:10.924Z,12.35
2023-03-23T01:44:09.654Z,12.29
2023-03-23T01:45:49.947Z,12.30
2023-03-23T01:47:24.708Z,12.27
2023-03-23T01:49:01.824Z,12.26
2023-03-23T01:50:56.746Z,12.20
2023-03-23T01:52:30.565Z,12.21
2023-03-23T01:54:12.279Z,12.20
2023-03-23T01:55:49.503Z,12.17
2023-03-23T01:57:24.555Z,12.18
2023-03-23T01:58:57.659Z,12.18
2023-03-23T02:00:31.593Z,12.18
2023-03-23T02:02:03.758Z,12.18
2023-03-23T02:03:37.846Z,12.18
2023-03-23T02:05:14.919Z,12.18
2023-03-23T02:06:48.873Z,12.19
2023-03-23T02:08:29.318Z,12.20
2023-03-23T02:10:01.724Z,12.20
2023-03-23T02:11:37.037Z,12.21
2023-03-23T02:13:12.782Z,12.22
2023-03-23T02:14:44.666Z,12.23
2023-03-23T02:16:29.937Z,12.22
2023-03-23T02:18:09.853Z,12.23
2023-03-23T02:20:00.280Z,12.21
2023-03-23T02:21:56.267Z,12.22
2023-03-23T02:23:50.163Z,12.21
2023-03-23T02:25:56.224Z,12.22
2023-03-23T02:27:37.140Z,12.21
2023-03-23T02:29:31.249Z,12.21
2023-03-23T02:31:23.268Z,12.17
2023-03-23T02:33:19.932Z,12.14
2023-03-23T02:34:57.923Z,12.16
2023-03-23T02:36:36.713Z,12.13
2023-03-23T02:38:18.265Z,12.09
2023-03-23T02:39:53.253Z,12.05
2023-03-23T02:41:31.796Z,12.09
2023-03-23T02:43:07.514Z,12.08
2023-03-23T02:44:43.938Z,12.05
2023-03-23T02:46:16.992Z,12.03
2023-03-23T02:47:53.211Z,12.01
2023-03-23T02:49:28.304Z,12.00
2023-03-23T02:51:02.940Z,11.97
2023-03-23T02:52:37.984Z,11.96
2023-03-23T02:54:11.459Z,11.96
2023-03-23T02:55:45.038Z,11.96
2023-03-23T02:57:23.716Z,11.94
2023-03-23T02:59:12.414Z,11.92
2023-03-23T03:00:45.359Z,11.89
2023-03-23T03:02:22.300Z,11.86
2023-03-23T03:03:57.345Z,11.85
2023-03-23T03:05:47.977Z,11.77
2023-03-23T03:07:38.105Z,11.81
2023-03-23T03:09:26.842Z,11.75
2023-03-23T03:11:06.722Z,11.73
2023-03-23T03:12:57.489Z,11.71
2023-03-23T03:14:40.534Z,11.68
2023-03-23T03:16:36.115Z,11.68
2023-03-23T03:18:20.513Z,11.68
2023-03-23T03:19:58.407Z,11.67
2023-03-23T03:21:37.603Z,11.65
2023-03-23T03:23:13.964Z,11.70
2023-03-23T03:24:49.393Z,11.68
2023-03-23T03:26:27.756Z,11.66
2023-03-23T03:28:05.452Z,11.67
2023-03-23T03:29:48.847Z,11.63
2023-03-23T03:31:26.096Z,11.70
2023-03-23T03:33:01.532Z,11.71
2023-03-23T03:34:34.776Z,11.71
2023-03-23T03:36:17.140Z,11.71
2023-03-23T03:37:49.282Z,11.74
2023-03-23T03:39:22.658Z,11.77
2023-03-23T03:40:55.566Z,11.82
2023-03-23T03:42:29.248Z,11.85
2023-03-23T03:44:01.425Z,11.88
2023-03-23T03:45:33.591Z,11.90
2023-03-23T03:47:05.798Z,11.94
2023-03-23T03:48:37.933Z,11.98
2023-03-23T03:50:10.747Z,12.02
2023-03-23T03:51:43.304Z,12.05
2023-03-23T03:53:22.987Z,12.11
2023-03-23T03:55:01.677Z,12.15
2023-03-23T03:56:41.366Z,12.20
2023-03-23T03:58:32.709Z,12.22
2023-03-23T04:00:28.119Z,12.26
2023-03-23T04:02:00.152Z,12.28
2023-03-23T04:03:32.411Z,12.32
2023-03-23T04:05:15.756Z,12.35
2023-03-23T04:06:50.215Z,12.36
2023-03-23T04:08:25.581Z,12.38
2023-03-23T04:09:57.482Z,12.40
2023-03-23T04:11:32.736Z,12.42
2023-03-23T04:13:25.423Z,12.43
2023-03-23T04:15:21.109Z,12.42
2023-03-23T04:16:58.052Z,12.43
2023-03-23T04:18:30.615Z,12.44
2023-03-23T04:20:09.557Z,12.45
2023-03-23T04:21:41.440Z,12.44
2023-03-23T04:23:15.893Z,12.46
2023-03-23T04:24:56.513Z,12.46
2023-03-23T04:26:30.433Z,12.47
2023-03-23T04:28:08.356Z,12.48
2023-03-23T04:29:50.895Z,12.48
2023-03-23T04:31:46.638Z,12.51
2023-03-23T04:33:58.705Z,12.51
2023-03-23T04:35:29.037Z,12.52
2023-03-23T04:37:14.676Z,12.52
2023-03-23T04:38:46.929Z,12.53
2023-03-23T04:40:25.849Z,12.52
2023-03-23T04:42:10.551Z,12.51
2023-03-23T04:44:10.420Z,12.52
2023-03-23T04:45:57.364Z,12.51
2023-03-23T04:47:34.170Z,12.55
2023-03-23T04:49:07.750Z,12.54
2023-03-23T04:50:42.996Z,12.58
2023-03-23T04:52:23.063Z,12.57
2023-03-23T04:53:59.355Z,12.59
2023-03-23T04:55:39.683Z,12.60
2023-03-23T04:57:13.924Z,12.61
2023-03-23T04:58:50.823Z,12.61
2023-03-23T05:00:38.440Z,12.64
2023-03-23T05:02:14.952Z,12.63
2023-03-23T05:03:50.482Z,12.65
2023-03-23T05:05:24.497Z,12.66
2023-03-23T05:06:57.904Z,12.69
2023-03-23T05:08:33.936Z,12.67
2023-03-23T05:10:07.528Z,12.69
2023-03-23T05:11:39.722Z,12.70
2023-03-23T05:13:11.586Z,12.71
2023-03-23T05:14:44.190Z,12.73
2023-03-23T05:16:19.689Z,12.73
2023-03-23T05:17:54.545Z,12.76
2023-03-23T05:19:27.342Z,12.77
2023-03-23T05:21:04.515Z,12.79
2023-03-23T05:22:40.904Z,12.81
2023-03-23T05:24:13.715Z,12.83
2023-03-23T05:25:48.546Z,12.86
2023-03-23T05:27:23.364Z,12.86
2023-03-23T05:28:57.258Z,12.88
2023-03-23T05:30:45.612Z,12.90
2023-03-23T05:32:20.349Z,12.93
2023-03-23T05:33:53.291Z,12.94
2023-03-23T05:35:33.930Z,12.97
2023-03-23T05:37:06.558Z,12.99
2023-03-23T05:38:53.507Z,13.01
2023-03-23T05:40:27.031Z,13.04
2023-03-23T05:42:05.305Z,13.07
2023-03-23T05:43:48.876Z,13.09
2023-03-23T05:45:43.607Z,13.13
2023-03-23T05:47:15.777Z,13.14
2023-03-23T05:48:53.497Z,13.17
2023-03-23T05:50:29.110Z,13.19
2023-03-23T05:52:00.986Z,13.20
2023-03-23T05:53:32.959Z,13.21
2023-03-23T05:55:05.627Z,13.24
2023-03-23T05:56:39.465Z,13.25
2023-03-23T05:58:26.192Z,13.27
2023-03-23T06:00:00.745Z,13.27
2023-03-23T06:01:32.978Z,13.29
2023-03-23T06:03:04.889Z,13.29
2023-03-23T06:04:46.058Z,13.32
2023-03-23T06:06:24.490Z,13.32
2023-03-23T06:08:01.516Z,13.32
2023-03-23T06:09:33.686Z,13.36
2023-03-23T06:11:20.976Z,13.38
2023-03-23T06:13:10.894Z,13.41
2023-03-23T06:14:50.763Z,13.44
2023-03-23T06:16:28.140Z,13.46
2023-03-23T06:18:04.071Z,13.48
2023-03-23T06:20:11.060Z,13.52
2023-03-23T06:21:45.119Z,13.55
2023-03-23T06:23:25.557Z,13.60
2023-03-23T06:24:58.333Z,13.64
2023-03-23T06:26:40.462Z,13.68
2023-03-23T06:28:16.554Z,13.74
2023-03-23T06:29:52.566Z,13.78
2023-03-23T06:31:27.775Z,13.83
2023-03-23T06:33:00.290Z,13.87
2023-03-23T06:34:52.084Z,13.92
2023-03-23T06:36:44.794Z,13.95
2023-03-23T06:38:29.532Z,14.00
2023-03-23T06:40:01.884Z,14.03
2023-03-23T06:41:37.932Z,14.06
2023-03-23T06:43:10.800Z,14.07
2023-03-23T06:45:01.763Z,14.12
2023-03-23T06:46:33.774Z,14.14
2023-03-23T06:48:24.521Z,14.18
2023-03-23T06:49:57.249Z,14.19
2023-03-23T06:51:31.608Z,14.22
2023-03-23T06:53:03.423Z,14.25
2023-03-23T06:54:35.934Z,14.28
2023-03-23T06:56:09.198Z,14.31
2023-03-23T06:57:43.512Z,14.35
2023-03-23T06:59:16.608Z,14.39
2023-03-23T07:00:49.046Z,14.43
2023-03-23T07:02:22.249Z,14.48
2023-03-23T07:03:57.220Z,14.54
2023-03-23T07:05:41.024Z,14.58
2023-03-23T07:07:15.616Z,14.66
2023-03-23T07:08:54.309Z,14.72
2023-03-23T07:10:29.682Z,14.77
2023-03-23T07:12:02.118Z,14.83
2023-03-23T07:13:38.845Z,14.91
2023-03-23T07:15:12.116Z,14.97
2023-03-23T07:16:46.246Z,15.02
2023-03-23T07:18:18.386Z,15.08
2023-03-23T07:19:53.055Z,15.14
2023-03-23T07:21:25.205Z,15.21
2023-03-23T07:22:57.148Z,15.26
2023-03-23T07:24:44.214Z,15.30
2023-03-23T07:26:31.171Z,15.35
2023-03-23T07:28:05.847Z,15.40
2023-03-23T07:29:41.129Z,15.45
2023-03-23T07:31:18.810Z,15.46
2023-03-23T07:32:52.019Z,15.49
2023-03-23T07:34:25.346Z,15.51
2023-03-23T07:36:08.556Z,15.53
2023-03-23T07:37:42.369Z,15.57
2023-03-23T07:39:15.080Z,15.59
2023-03-23T07:40:48.157Z,15.61
2023-03-23T07:42:22.528Z,15.64
2023-03-23T07:44:00.974Z,15.67
2023-03-23T07:45:39.692Z,15.67
2023-03-23T07:47:12.025Z,15.70
2023-03-23T07:48:44.323Z,15.70
2023-03-23T07:50:16.346Z,15.71
2023-03-23T07:51:48.548Z,15.71
2023-03-23T07:53:25.123Z,15.73
2023-03-23T07:55:07.586Z,15.76
2023-03-23T07:57:05.939Z,15.77
2023-03-23T07:58:42.768Z,15.78
2023-03-23T08:00:20.319Z,15.81
2023-03-23T08:01:53.100Z,15.84
2023-03-23T08:03:55.780Z,15.87
2023-03-23T08:05:47.364Z,15.89
2023-03-23T08:07:20.354Z,15.89
2023-03-23T08:09:15.144Z,15.89
2023-03-23T08:11:12.653Z,15.90
2023-03-23T08:12:56.317Z,15.88
2023-03-23T08:14:45.965Z,15.88
2023-03-23T08:16:41.921Z,15.88
2023-03-23T08:18:40.215Z,15.90
2023-03-23T08:20:33.853Z,15.90
2023-03-23T08:22:05.695Z,15.89
2023-03-23T08:23:49.771Z,15.90
2023-03-23T08:25:33.362Z,15.89
2023-03-23T08:27:16.850Z,15.87
2023-03-23T08:28:48.664Z,15.85
2023-03-23T08:30:49.630Z,15.85
2023-03-23T08:32:53.496Z,15.82
2023-03-23T08:34:44.335Z,15.78
2023-03-23T08:36:34.350Z,15.83
2023-03-23T08:38:24.466Z,15.80
2023-03-23T08:40:17.765Z,15.77
2023-03-23T08:42:08.723Z,15.74
2023-03-23T08:43:54.764Z,15.69
2023-03-23T08:45:57.866Z,15.68
2023-03-23T08:47:53.078Z,15.63
2023-03-23T08:49:46.450Z,15.59
2023-03-23T08:51:37.191Z,15.55
2023-03-23T08:53:15.254Z,15.52
2023-03-23T08:54:52.641Z,15.47
2023-03-23T08:56:40.008Z,15.42
2023-03-23T08:58:20.815Z,15.35
2023-03-23T09:00:19.433Z,15.32
2023-03-23T09:02:15.366Z,15.29
2023-03-23T09:03:53.017Z,15.26
2023-03-23T09:05:35.644Z,15.25
2023-03-23T09:07:21.991Z,15.25
2023-03-23T09:08:56.826Z,15.25
2023-03-23T09:10:31.314Z,15.25
2023-03-23T09:12:03.145Z,15.24
2023-03-23T09:13:36.542Z,15.23
2023-03-23T09:15:11.884Z,15.22
2023-03-23T09:16:46.400Z,15.17
2023-03-23T09:18:18.462Z,15.17
2023-03-23T09:19:50.301Z,15.16
2023-03-23T09:21:29.309Z,15.15
2023-03-23T09:23:01.284Z,15.12
2023-03-23T09:24:33.129Z,15.11
2023-03-23T09:26:05.552Z,15.12
2023-03-23T09:27:38.121Z,15.08
2023-03-23T09:29:09.917Z,15.06
2023-03-23T09:30:53.001Z,15.04
2023-03-23T09:32:25.320Z,15.03
2023-03-23T09:33:58.255Z,15.02
2023-03-23T09:35:33.045Z,15.04
2023-03-23T09:37:05.605Z,15.05
2023-03-23T09:38:38.226Z,15.06
2023-03-23T09:40:19.629Z,15.10
2023-03-23T09:42:09.207Z,15.08
2023-03-23T09:44:02.860Z,15.14
2023-03-23T09:46:13.499Z,15.15
2023-03-23T09:48:10.108Z,15.19
2023-03-23T09:49:54.366Z,15.24
2023-03-23T09:51:43.774Z,15.27
2023-03-23T09:53:25.955Z,15.36
2023-03-23T09:54:58.138Z,15.44
2023-03-23T09:56:33.760Z,15.52
2023-03-23T09:58:18.021Z,15.57
2023-03-23T10:00:14.592Z,15.67
2023-03-23T10:01:53.339Z,15.77
2023-03-23T10:03:35.582Z,15.86
2023-03-23T10:05:35.263Z,15.92
2023-03-23T10:07:17.692Z,16.02
2023-03-23T10:08:57.470Z,16.12
2023-03-23T10:10:51.352Z,16.19
2023-03-23T10:12:31.312Z,16.29
2023-03-23T10:14:44.833Z,16.34
2023-03-23T10:16:24.141Z,16.47
2023-03-23T10:18:05.301Z,16.55
2023-03-23T10:19:49.129Z,16.64
2023-03-23T10:21:23.873Z,16.73
2023-03-23T10:23:14.363Z,16.76
2023-03-23T10:24:56.882Z,16.85
2023-03-23T10:26:56.923Z,16.87
2023-03-23T10:28:40.025Z,16.95
2023-03-23T10:30:13.108Z,16.99
2023-03-23T10:31:50.445Z,17.01
2023-03-23T10:33:31.232Z,17.02
2023-03-23T10:35:07.388Z,17.05
2023-03-23T10:36:51.708Z,17.06
2023-03-23T10:38:30.169Z,17.07
2023-03-23T10:40:10.383Z,17.07
2023-03-23T10:41:42.782Z,17.08
2023-03-23T10:43:15.077Z,17.06
2023-03-23T10:44:46.918Z,17.03
2023-03-23T10:48:14.353Z,16.97
2023-03-23T10:50:02.547Z,16.93
2023-03-23T10:51:42.215Z,16.92
2023-03-23T10:53:22.221Z,16.88
2023-03-23T10:55:08.167Z,16.82
2023-03-23T10:56:58.129Z,16.83
2023-03-23T10:58:34.653Z,16.82
2023-03-23T11:00:41.734Z,16.80
2023-03-23T11:02:29.337Z,16.82
2023-03-23T11:04:02.748Z,16.81
2023-03-23T11:05:42.416Z,16.78
2023-03-23T11:07:21.817Z,16.77
2023-03-23T11:09:12.756Z,16.74
2023-03-23T11:10:53.808Z,16.77
2023-03-23T11:12:25.718Z,16.76
2023-03-23T11:14:15.530Z,16.74
2023-03-23T11:15:49.584Z,16.76
2023-03-23T11:17:30.962Z,16.69
2023-03-23T11:19:25.785Z,16.69
2023-03-23T11:21:00.380Z,16.76
2023-03-23T11:22:37.619Z,16.74
2023-03-23T11:24:10.261Z,16.77
2023-03-23T11:25:55.206Z,16.72
2023-03-23T11:27:29.617Z,16.73
2023-03-23T11:29:11.754Z,16.68
2023-03-23T11:30:43.668Z,16.67
2023-03-23T11:32:17.183Z,16.64
2023-03-23T11:34:05.946Z,16.61
2023-03-23T11:35:38.116Z,16.61
2023-03-23T11:37:24.710Z,16.58
2023-03-23T11:38:59.900Z,16.56
2023-03-23T11:40:33.428Z,16.55
2023-03-23T11:42:21.531Z,16.52
2023-03-23T11:43:53.953Z,16.52
2023-03-23T11:45:31.383Z,16.50
2023-03-23T11:47:14.457Z,16.47
2023-03-23T11:48:57.460Z,16.45
2023-03-23T11:50:34.084Z,16.44
2023-03-23T11:52:22.574Z,16.40
2023-03-23T11:54:14.321Z,16.40
2023-03-23T11:55:46.499Z,16.36
2023-03-23T11:57:22.081Z,16.33
2023-03-23T11:58:56.698Z,16.29
2023-03-23T12:00:29.827Z,16.24
2023-03-23T12:02:25.136Z,16.19
2023-03-23T12:04:03.976Z,16.14
2023-03-23T12:05:42.222Z,16.08
2023-03-23T12:07:24.775Z,16.01
2023-03-23T12:09:09.098Z,15.99
2023-03-23T12:12:29.147Z,15.86
2023-03-23T12:14:16.076Z,15.80
2023-03-23T12:15:57.583Z,15.75
2023-03-23T12:17:41.287Z,15.76
2023-03-23T12:19:32.193Z,15.75
2023-03-23T12:21:22.760Z,15.76
2023-03-23T12:23:23.764Z,15.75
2023-03-23T12:25:18.446Z,15.80
2023-03-23T12:27:01.650Z,15.87
2023-03-23T12:29:01.539Z,15.89
2023-03-23T12:30:45.083Z,15.96
2023-03-23T12:32:34.467Z,16.01
2023-03-23T12:34:18.610Z,16.06
2023-03-23T12:36:00.038Z,16.11
2023-03-23T12:37:56.454Z,16.15
2023-03-23T12:39:39.134Z,16.21
2023-03-23T12:41:38.988Z,16.21
2023-03-23T12:43:26.087Z,16.23
2023-03-23T12:45:23.443Z,16.24
2023-03-23T12:47:29.726Z,16.28
2023-03-23T12:49:29.469Z,16.30
2023-03-23T12:51:20.022Z,16.35
2023-03-23T12:53:21.682Z,16.36
2023-03-23T12:55:10.843Z,16.44
2023-03-23T12:57:00.071Z,16.45
2023-03-23T12:58:36.648Z,16.53
2023-03-23T13:00:27.343Z,16.58
2023-03-23T13:02:05.923Z,16.63
2023-03-23T13:03:49.594Z,16.67
2023-03-23T13:05:25.126Z,16.78
2023-03-23T13:06:59.313Z,16.84
2023-03-23T13:08:43.529Z,16.92
2023-03-23T13:10:23.994Z,17.02
2023-03-23T13:11:58.310Z,17.14
2023-03-23T13:13:55.247Z,17.24
2023-03-23T13:15:46.039Z,17.40
2023-03-23T13:17:27.390Z,17.54
2023-03-23T13:18:59.147Z,17.60
2023-03-23T13:20:46.507Z,17.74
2023-03-23T13:22:36.258Z,17.78
2023-03-23T13:24:14.238Z,17.85
2023-03-23T13:26:02.824Z,17.85
2023-03-23T13:27:34.640Z,17.90
2023-03-23T13:29:20.970Z,17.87
2023-03-23T13:31:14.776Z,17.83
2023-03-23T13:32:50.081Z,17.85
2023-03-23T13:34:32.085Z,17.85
2023-03-23T13:36:13.365Z,17.81
2023-03-23T13:37:53.745Z,17.82
2023-03-23T13:39:31.175Z,17.79
2023-03-23T13:41:14.882Z,17.74
2023-03-23T13:42:55.956Z,17.75
2023-03-23T13:44:40.499Z,17.75
2023-03-23T13:46:31.484Z,17.71
2023-03-23T13:48:16.818Z,17.75
2023-03-23T13:50:16.177Z,17.75
2023-03-23T13:52:07.340Z,17.76
2023-03-23T13:53:48.615Z,17.78
2023-03-23T13:55:31.458Z,17.77
2023-03-23T13:57:04.645Z,17.86
2023-03-23T13:58:50.907Z,17.87
2023-03-23T14:00:31.757Z,17.93
2023-03-23T14:02:35.892Z,17.96
2023-03-23T14:04:16.820Z,18.02
2023-03-23T14:06:00.796Z,18.03
2023-03-23T14:07:53.286Z,18.05
2023-03-23T14:09:43.769Z,18.11
2023-03-23T14:11:24.939Z,18.19
2023-03-23T14:12:56.775Z,18.25
2023-03-23T14:14:36.887Z,18.40
2023-03-23T14:16:30.594Z,18.54
2023-03-23T14:18:05.837Z,18.71
2023-03-23T14:19:41.061Z,18.84
2023-03-23T14:21:22.814Z,18.97
2023-03-23T14:22:56.874Z,19.11
2023-03-23T14:24:31.822Z,19.24
2023-03-23T14:26:12.015Z,19.36
2023-03-23T14:27:44.991Z,19.46
2023-03-23T14:29:16.831Z,19.52
2023-03-23T14:30:55.232Z,19.55
2023-03-23T14:32:30.100Z,19.56
2023-03-23T14:34:13.811Z,19.55
2023-03-23T14:35:47.360Z,19.51
2023-03-23T14:37:19.464Z,19.44
2023-03-23T14:39:20.254Z,19.29
2023-03-23T14:40:52.405Z,19.23
2023-03-23T14:42:32.587Z,19.11
2023-03-23T14:44:07.832Z,19.03
2023-03-23T14:45:40.515Z,18.93
2023-03-23T14:47:20.767Z,18.83
2023-03-23T14:48:53.431Z,18.77
2023-03-23T14:50:30.146Z,18.72
2023-03-23T14:52:10.702Z,18.65
2023-03-23T14:53:43.461Z,18.62
2023-03-23T14:55:22.092Z,18.57
2023-03-23T14:56:54.868Z,18.52
2023-03-23T14:58:26.745Z,18.47
2023-03-23T14:59:59.166Z,18.40
2023-03-23T15:01:34.601Z,18.31
2023-03-23T15:03:11.663Z,18.26
2023-03-23T15:04:47.507Z,18.19
2023-03-23T15:06:22.834Z,18.12
2023-03-23T15:08:00.657Z,18.02
2023-03-23T15:09:33.354Z,17.94
2023-03-23T15:11:23.403Z,17.84
2023-03-23T15:12:59.009Z,17.77
2023-03-23T15:14:43.710Z,17.69
2023-03-23T15:16:29.981Z,17.58
2023-03-23T15:18:03.479Z,17.54
2023-03-23T15:19:41.123Z,17.46
2023-03-23T15:21:23.520Z,17.38
2023-03-23T15:22:56.165Z,17.34
2023-03-23T15:24:42.127Z,17.27
2023-03-23T15:26:25.604Z,17.22
2023-03-23T15:28:04.693Z,17.18
2023-03-23T15:29:54.136Z,17.08
2023-03-23T15:31:26.075Z,17.05
2023-03-23T15:33:14.559Z,16.97
2023-03-23T15:34:46.656Z,16.91
2023-03-23T15:36:19.848Z,16.85
2023-03-23T15:38:05.651Z,16.78
2023-03-23T15:39:42.444Z,16.69
2023-03-23T15:41:34.822Z,16.58
2023-03-23T15:43:18.156Z,16.57
2023-03-23T15:45:03.602Z,16.51
2023-03-23T15:46:35.414Z,16.47
2023-03-23T15:48:13.615Z,16.38
2023-03-23T15:49:46.715Z,16.35
2023-03-23T15:51:21.047Z,16.29
2023-03-23T15:52:53.231Z,16.24
2023-03-23T15:54:25.084Z,16.18
2023-03-23T15:56:00.134Z,16.13
2023-03-23T15:57:32.010Z,16.09
2023-03-23T15:59:04.286Z,16.03
2023-03-23T16:00:36.160Z,15.98
2023-03-23T16:02:17.138Z,15.94
2023-03-23T16:03:59.101Z,15.91
2023-03-23T16:05:30.927Z,15.89
2023-03-23T16:07:02.865Z,15.85
2023-03-23T16:08:41.005Z,15.80
2023-03-23T16:10:18.639Z,15.76
2023-03-23T16:11:50.549Z,15.74
2023-03-23T16:13:23.150Z,15.68
2023-03-23T16:14:58.544Z,15.65
2023-03-23T16:16:39.827Z,15.61
2023-03-23T16:18:18.425Z,15.57
2023-03-23T16:19:50.309Z,15.54
2023-03-23T16:21:22.795Z,15.51
2023-03-23T16:22:54.963Z,15.48
2023-03-23T16:24:26.788Z,15.44
2023-03-23T16:25:58.706Z,15.41
2023-03-23T16:27:30.812Z,15.36
2023-03-23T16:29:12.936Z,15.34
2023-03-23T16:30:52.107Z,15.29
2023-03-23T16:32:24.422Z,15.27
2023-03-23T16:33:56.240Z,15.22
2023-03-23T16:35:28.151Z,15.22
2023-03-23T16:37:00.198Z,15.19
2023-03-23T16:38:31.984Z,15.16
2023-03-23T16:40:05.120Z,15.14
2023-03-23T16:41:36.909Z,15.12
2023-03-23T16:43:09.778Z,15.08
2023-03-23T16:44:41.777Z,15.05
2023-03-23T16:46:14.419Z,15.02
2023-03-23T16:47:46.357Z,15.01
2023-03-23T16:49:18.465Z,14.99
2023-03-23T16:50:51.845Z,14.96
2023-03-23T16:52:24.218Z,14.93
2023-03-23T16:53:56.305Z,14.92
2023-03-23T16:55:28.426Z,14.89
2023-03-23T16:57:00.240Z,14.85
2023-03-23T16:58:32.283Z,14.85
2023-03-23T17:00:09.744Z,14.82
2023-03-23T17:01:43.409Z,14.80
2023-03-23T17:03:16.636Z,14.78
2023-03-23T17:04:48.530Z,14.77
2023-03-23T17:06:20.317Z,14.74
2023-03-23T17:07:53.164Z,14.72
2023-03-23T17:09:28.050Z,14.69
2023-03-23T17:10:59.973Z,14.67
2023-03-23T17:12:31.979Z,14.65
2023-03-23T17:14:03.913Z,14.61
2023-03-23T17:15:41.084Z,14.60
2023-03-23T17:17:13.902Z,14.58
2023-03-23T17:18:45.873Z,14.53
2023-03-23T17:20:18.036Z,14.50
2023-03-23T17:21:49.890Z,14.48
2023-03-23T17:23:22.132Z,14.45
2023-03-23T17:24:54.092Z,14.43
2023-03-23T17:26:26.011Z,14.38
2023-03-23T17:28:05.117Z,14.36
2023-03-23T17:29:38.954Z,14.34
2023-03-23T17:31:10.895Z,14.32
2023-03-23T17:32:50.411Z,14.27
2023-03-23T17:34:22.875Z,14.23
2023-03-23T17:35:55.301Z,14.20
2023-03-23T17:37:27.585Z,14.15
2023-03-23T17:38:59.425Z,14.09
2023-03-23T17:40:31.237Z,14.02
2023-03-23T17:42:04.238Z,13.97
2023-03-23T17:43:36.634Z,13.91
2023-03-23T17:45:09.571Z,13.82
2023-03-23T17:46:41.425Z,13.75
2023-03-23T17:48:13.407Z,13.68
2023-03-23T17:49:45.569Z,13.59
2023-03-23T17:51:17.683Z,13.51
2023-03-23T17:52:50.082Z,13.44
2023-03-23T17:54:21.916Z,13.36
2023-03-23T17:55:53.827Z,13.29
2023-03-23T17:57:29.003Z,13.22
2023-03-23T17:59:01.915Z,13.17
2023-03-23T18:00:34.160Z,13.14
2023-03-23T18:02:07.120Z,13.10
2023-03-23T18:03:39.136Z,13.06
2023-03-23T18:05:12.026Z,13.02
2023-03-23T18:06:44.075Z,13.01
2023-03-23T18:08:16.155Z,12.98
2023-03-23T18:09:48.276Z,12.97
2023-03-23T18:11:20.226Z,12.95
2023-03-23T18:12:52.116Z,12.94
2023-03-23T18:14:24.439Z,12.92
2023-03-23T18:15:57.059Z,12.91
2023-03-23T18:17:28.958Z,12.90
2023-03-23T18:19:01.195Z,12.89
2023-03-23T18:20:33.616Z,12.85
2023-03-23T18:22:05.548Z,12.83
2023-03-23T18:23:46.000Z,12.82
2023-03-23T18:25:21.702Z,12.77
2023-03-23T18:26:53.615Z,12.73
2023-03-23T18:28:25.585Z,12.69
2023-03-23T18:29:59.062Z,12.64
2023-03-23T18:31:31.043Z,12.59
2023-03-23T18:33:03.125Z,12.53
2023-03-23T18:34:36.869Z,12.48
2023-03-23T18:36:10.027Z,12.42
2023-03-23T18:37:43.743Z,12.37
2023-03-23T18:39:15.961Z,12.30
2023-03-23T18:40:47.776Z,12.23
2023-03-23T18:42:19.763Z,12.18
2023-03-23T18:43:52.205Z,12.12
2023-03-23T18:45:24.035Z,12.06
2023-03-23T18:46:56.481Z,12.00
2023-03-23T18:48:28.987Z,11.94
2023-03-23T18:50:01.632Z,11.88
2023-03-23T18:51:33.482Z,11.81
2023-03-23T18:53:05.294Z,11.76
2023-03-23T18:54:38.447Z,11.69
2023-03-23T18:56:16.235Z,11.63
2023-03-23T18:57:53.439Z,11.58
2023-03-23T18:59:30.924Z,11.54
2023-03-23T19:01:09.193Z,11.49
2023-03-23T19:02:42.063Z,11.43
2023-03-23T19:04:14.766Z,11.40
2023-03-23T19:05:47.108Z,11.35
2023-03-23T19:07:20.055Z,11.31
2023-03-23T19:08:53.714Z,11.27
2023-03-23T19:10:25.901Z,11.24
2023-03-23T19:11:57.950Z,11.19
2023-03-23T19:13:31.656Z,11.16
2023-03-23T19:15:03.955Z,11.12
2023-03-23T19:16:36.292Z,11.09
2023-03-23T19:18:09.070Z,11.06
2023-03-23T19:19:43.229Z,11.05
2023-03-23T19:21:18.689Z,11.04
2023-03-23T19:22:52.988Z,11.03
2023-03-23T19:24:26.640Z,11.03
2023-03-23T19:25:58.423Z,11.04
2023-03-23T19:27:30.230Z,11.05
2023-03-23T19:30:37.329Z,11.05
2023-03-23T19:32:09.628Z,11.08
2023-03-23T19:33:41.979Z,11.07
2023-03-23T19:35:14.615Z,11.07
2023-03-23T19:36:54.448Z,11.07
2023-03-23T19:38:28.248Z,11.06
2023-03-23T19:40:02.883Z,11.06
2023-03-23T19:41:41.791Z,11.06
2023-03-23T19:43:13.712Z,11.05
2023-03-23T19:44:45.544Z,11.04
2023-03-23T19:46:17.929Z,11.04
2023-03-23T19:47:50.194Z,11.04
2023-03-23T19:49:22.524Z,11.03
2023-03-23T19:50:55.983Z,11.05
2023-03-23T19:52:28.318Z,11.07
2023-03-23T19:54:00.630Z,11.09
2023-03-23T19:55:33.212Z,11.09
2023-03-23T19:57:06.015Z,11.11
2023-03-23T19:58:38.775Z,11.16
2023-03-23T20:00:13.542Z,11.18
2023-03-23T20:01:45.568Z,11.21
2023-03-23T20:03:18.047Z,11.25
2023-03-23T20:04:50.022Z,11.27
2023-03-23T20:06:21.944Z,11.31
2023-03-23T20:07:54.689Z,11.35
2023-03-23T20:09:26.839Z,11.39
2023-03-23T20:11:07.075Z,11.40
2023-03-23T20:12:39.274Z,11.43
2023-03-23T20:14:11.142Z,11.47
2023-03-23T20:15:43.053Z,11.48
2023-03-23T20:17:15.090Z,11.52
2023-03-23T20:18:47.624Z,11.52
2023-03-23T20:20:20.422Z,11.54
2023-03-23T20:21:52.864Z,11.54
2023-03-23T20:23:25.211Z,11.58
2023-03-23T20:24:57.301Z,11.59
2023-03-23T20:26:36.160Z,11.61
2023-03-23T20:28:07.955Z,11.63
2023-03-23T20:29:39.797Z,11.66
2023-03-23T20:31:24.300Z,11.69
2023-03-23T20:33:00.865Z,11.72
2023-03-23T20:34:33.242Z,11.74
2023-03-23T20:36:06.635Z,11.78
2023-03-23T20:37:40.156Z,11.80
2023-03-23T20:39:21.560Z,11.84
2023-03-23T20:40:57.083Z,11.87
2023-03-23T20:42:29.729Z,11.89
2023-03-23T20:44:02.515Z,11.91
2023-03-23T20:45:34.345Z,11.94
2023-03-23T20:47:07.770Z,11.93
2023-03-23T20:48:40.410Z,11.96
2023-03-23T20:50:12.696Z,11.95
2023-03-23T20:51:45.169Z,11.97
2023-03-23T20:53:17.523Z,11.95
2023-03-23T20:54:53.166Z,11.95
2023-03-23T20:56:25.775Z,11.94
2023-03-23T20:57:57.648Z,11.94
2023-03-23T20:59:30.072Z,11.94
2023-03-23T21:01:04.734Z,11.93
2023-03-23T21:02:36.645Z,11.93
2023-03-23T21:04:15.434Z,11.94
2023-03-23T21:05:47.837Z,11.94
2023-03-23T21:07:23.324Z,11.94
2023-03-23T21:08:57.158Z,11.96
2023-03-23T21:10:29.244Z,11.95